createdAt,value
2022-12-29T00:00:46.170Z,79.01
2022-12-29T00:01:41.149Z,79.00
2022-12-29T00:02:36.330Z,78.93
2022-12-29T00:03:31.324Z,78.98
2022-12-29T00:04:26.361Z,78.87
2022-12-29T00:05:21.438Z,78.85
2022-12-29T00:06:16.451Z,78.85
2022-12-29T00:07:11.545Z,78.94
2022-12-29T00:08:06.682Z,78.94
2022-12-29T00:09:01.722Z,78.94
2022-12-29T00:09:56.832Z,78.93
2022-12-29T00:10:51.908Z,78.89
2022-12-29T00:11:46.965Z,78.84
2022-12-29T00:12:42.010Z,78.80
2022-12-29T00:13:37.011Z,78.82
2022-12-29T00:14:32.546Z,78.83
2022-12-29T00:15:27.685Z,78.75
2022-12-29T00:16:23.557Z,78.62
2022-12-29T00:17:18.610Z,78.53
2022-12-29T00:18:13.904Z,78.51
2022-12-29T00:19:09.523Z,78.41
2022-12-29T00:20:04.685Z,78.14
2022-12-29T00:20:59.907Z,78.07
2022-12-29T00:21:56.244Z,77.96
2022-12-29T00:22:51.332Z,77.95
2022-12-29T00:23:47.112Z,77.80
2022-12-29T00:24:42.293Z,77.65
2022-12-29T00:25:37.404Z,77.63
2022-12-29T00:26:33.401Z,77.63
2022-12-29T00:27:28.471Z,77.70
2022-12-29T00:28:24.510Z,77.87
2022-12-29T00:29:19.658Z,77.99
2022-12-29T00:30:14.639Z,77.98
2022-12-29T00:31:10.535Z,78.09
2022-12-29T00:32:05.826Z,78.14
2022-12-29T00:33:01.007Z,78.19
2022-12-29T00:33:57.445Z,78.28
2022-12-29T00:34:52.565Z,78.39
2022-12-29T00:35:48.501Z,78.51
2022-12-29T00:36:43.754Z,78.46
2022-12-29T00:37:39.016Z,78.38
2022-12-29T00:38:34.719Z,78.30
2022-12-29T00:39:29.826Z,78.35
2022-12-29T00:40:25.622Z,78.44
2022-12-29T00:41:20.693Z,78.48
2022-12-29T00:42:16.113Z,78.60
2022-12-29T00:43:11.793Z,78.61
2022-12-29T00:44:07.065Z,78.68
2022-12-29T00:45:02.175Z,78.84
2022-12-29T00:45:58.770Z,78.86
2022-12-29T00:46:53.954Z,79.02
2022-12-29T00:47:49.784Z,79.25
2022-12-29T00:48:44.841Z,79.23
2022-12-29T00:49:39.997Z,79.36
2022-12-29T00:50:35.818Z,79.57
2022-12-29T00:51:30.945Z,79.60
2022-12-29T00:52:26.725Z,79.67
2022-12-29T00:53:21.968Z,79.67
2022-12-29T00:54:18.143Z,79.72
2022-12-29T00:55:13.051Z,79.76
2022-12-29T00:56:08.139Z,79.80
2022-12-29T00:57:03.385Z,79.70
2022-12-29T00:57:59.549Z,79.60
2022-12-29T00:58:54.811Z,79.68
2022-12-29T00:59:50.739Z,79.60
2022-12-29T01:00:45.909Z,79.61
2022-12-29T01:01:41.118Z,79.48
2022-12-29T01:02:37.054Z,79.44
2022-12-29T01:03:32.068Z,79.32
2022-12-29T01:04:27.992Z,79.41
2022-12-29T01:05:23.086Z,79.39
2022-12-29T01:06:18.244Z,79.36
2022-12-29T01:07:14.177Z,79.35
2022-12-29T01:08:09.361Z,79.24
2022-12-29T01:09:04.431Z,79.04
2022-12-29T01:10:00.808Z,78.99
2022-12-29T01:10:55.907Z,78.87
2022-12-29T01:11:51.755Z,78.72
2022-12-29T01:12:46.833Z,78.59
2022-12-29T01:13:42.318Z,78.52
2022-12-29T01:14:37.262Z,78.49
2022-12-29T01:15:32.512Z,78.26
2022-12-29T01:16:28.520Z,78.33
2022-12-29T01:17:23.469Z,78.37
2022-12-29T01:18:18.803Z,78.37
2022-12-29T01:19:15.126Z,78.25
2022-12-29T01:20:10.210Z,78.25
2022-12-29T01:21:06.016Z,78.28
2022-12-29T01:22:01.157Z,78.37
2022-12-29T01:22:56.556Z,78.37
2022-12-29T01:23:52.233Z,78.44
2022-12-29T01:24:47.495Z,78.39
2022-12-29T01:25:43.304Z,78.49
2022-12-29T01:26:38.529Z,78.40
2022-12-29T01:27:33.756Z,78.37
2022-12-29T01:28:29.453Z,78.24
2022-12-29T01:29:24.704Z,78.11
2022-12-29T01:30:19.815Z,77.88
2022-12-29T01:31:14.878Z,77.67
2022-12-29T01:32:10.204Z,77.49
2022-12-29T01:33:05.181Z,77.64
2022-12-29T01:34:00.314Z,77.47
2022-12-29T01:34:58.958Z,77.34
2022-12-29T01:35:54.065Z,77.34
2022-12-29T01:36:49.339Z,77.33
2022-12-29T01:37:44.423Z,77.23
2022-12-29T01:38:39.483Z,77.30
2022-12-29T01:39:34.585Z,77.36
2022-12-29T01:40:29.633Z,77.39
2022-12-29T01:41:24.727Z,77.38
2022-12-29T01:42:19.882Z,77.47
2022-12-29T01:43:14.871Z,77.54
2022-12-29T01:44:09.849Z,77.51
2022-12-29T01:45:04.983Z,77.51
2022-12-29T01:45:59.995Z,77.51
2022-12-29T01:46:55.009Z,77.61
2022-12-29T01:47:50.062Z,77.66
2022-12-29T01:48:45.143Z,77.68
2022-12-29T01:49:40.241Z,77.74
2022-12-29T01:50:35.302Z,77.79
2022-12-29T01:51:30.293Z,77.78
2022-12-29T01:52:25.415Z,78.08
2022-12-29T01:53:20.582Z,78.18
2022-12-29T01:54:15.835Z,78.26
2022-12-29T01:55:10.873Z,78.37
2022-12-29T01:56:06.123Z,78.43
2022-12-29T01:57:01.220Z,78.49
2022-12-29T01:57:56.332Z,78.58
2022-12-29T01:58:51.282Z,78.58
2022-12-29T01:59:46.365Z,78.66
2022-12-29T02:00:41.484Z,78.53
2022-12-29T02:01:36.541Z,78.64
2022-12-29T02:02:33.543Z,78.67
2022-12-29T02:03:26.669Z,78.69
2022-12-29T02:04:21.657Z,78.71
2022-12-29T02:05:16.797Z,78.67
2022-12-29T02:06:11.763Z,78.71
2022-12-29T02:07:06.868Z,78.78
2022-12-29T02:08:01.938Z,78.81
2022-12-29T02:08:57.138Z,78.81
2022-12-29T02:09:52.062Z,78.91
2022-12-29T02:10:47.080Z,79.05
2022-12-29T02:11:42.164Z,79.15
2022-12-29T02:12:37.262Z,79.21
2022-12-29T02:13:32.354Z,79.32
2022-12-29T02:14:27.469Z,79.26
2022-12-29T02:15:22.684Z,79.37
2022-12-29T02:16:17.929Z,79.47
2022-12-29T02:17:12.864Z,79.46
2022-12-29T02:18:07.955Z,79.48
2022-12-29T02:19:03.043Z,79.51
2022-12-29T02:19:58.157Z,79.61
2022-12-29T02:20:53.266Z,79.59
2022-12-29T02:21:48.387Z,79.67
2022-12-29T02:22:43.479Z,79.53
2022-12-29T02:23:38.672Z,79.53
2022-12-29T02:24:33.855Z,79.52
2022-12-29T02:25:29.011Z,79.69
2022-12-29T02:26:24.068Z,79.62
2022-12-29T02:27:19.289Z,79.62
2022-12-29T02:28:14.382Z,79.63
2022-12-29T02:29:09.467Z,79.67
2022-12-29T02:30:04.546Z,79.66
2022-12-29T02:30:59.801Z,79.72
2022-12-29T02:31:55.099Z,79.83
2022-12-29T02:32:50.139Z,79.91
2022-12-29T02:33:45.275Z,79.97
2022-12-29T02:34:40.384Z,80.00
2022-12-29T02:35:35.495Z,80.14
2022-12-29T02:36:30.608Z,80.15
2022-12-29T02:37:28.930Z,80.11
2022-12-29T02:38:24.036Z,80.25
2022-12-29T02:39:19.102Z,80.21
2022-12-29T02:40:14.359Z,80.18
2022-12-29T02:41:09.999Z,80.10
2022-12-29T02:42:04.940Z,80.09
2022-12-29T02:43:00.195Z,80.01
2022-12-29T02:43:55.260Z,80.03
2022-12-29T02:44:51.710Z,79.97
2022-12-29T02:45:47.011Z,79.88
2022-12-29T02:46:41.999Z,79.83
2022-12-29T02:47:37.293Z,79.76
2022-12-29T02:48:32.758Z,79.81
2022-12-29T02:49:27.720Z,79.76
2022-12-29T02:50:22.657Z,79.57
2022-12-29T02:51:17.907Z,79.59
2022-12-29T02:52:13.131Z,79.61
2022-12-29T02:53:08.235Z,79.46
2022-12-29T02:54:03.327Z,79.30
2022-12-29T02:54:58.554Z,79.27
2022-12-29T02:55:53.610Z,79.14
2022-12-29T02:56:48.833Z,79.02
2022-12-29T02:57:43.961Z,78.96
2022-12-29T02:58:39.176Z,78.68
2022-12-29T02:59:34.392Z,78.54
2022-12-29T03:00:29.518Z,78.55
2022-12-29T03:01:24.663Z,78.39
2022-12-29T03:02:19.902Z,78.01
2022-12-29T03:03:14.942Z,77.80
2022-12-29T03:04:10.357Z,77.39
2022-12-29T03:05:05.298Z,77.39
2022-12-29T03:06:00.368Z,77.22
2022-12-29T03:06:55.484Z,77.15
2022-12-29T03:07:50.615Z,77.12
2022-12-29T03:08:45.799Z,76.89
2022-12-29T03:09:41.026Z,76.64
2022-12-29T03:10:36.076Z,76.63
2022-12-29T03:11:31.306Z,76.63
2022-12-29T03:12:26.458Z,76.67
2022-12-29T03:13:21.656Z,76.77
2022-12-29T03:14:16.772Z,76.82
2022-12-29T03:15:11.899Z,76.73
2022-12-29T03:16:07.485Z,76.66
2022-12-29T03:17:02.127Z,76.50
2022-12-29T03:17:57.126Z,76.50
2022-12-29T03:18:52.234Z,76.59
2022-12-29T03:19:47.281Z,76.57
2022-12-29T03:20:42.667Z,76.27
2022-12-29T03:21:37.765Z,76.42
2022-12-29T03:22:32.967Z,76.32
2022-12-29T03:23:28.015Z,76.38
2022-12-29T03:24:23.622Z,76.32
2022-12-29T03:25:18.649Z,76.17
2022-12-29T03:26:13.736Z,76.18
2022-12-29T03:27:08.941Z,76.18
2022-12-29T03:28:04.058Z,76.18
2022-12-29T03:28:59.164Z,75.97
2022-12-29T03:29:54.226Z,75.88
2022-12-29T03:30:49.438Z,75.91
2022-12-29T03:31:44.699Z,75.93
2022-12-29T03:32:39.743Z,75.82
2022-12-29T03:33:34.898Z,75.62
2022-12-29T03:34:29.983Z,75.62
2022-12-29T03:35:25.063Z,75.77
2022-12-29T03:36:20.236Z,75.76
2022-12-29T03:37:15.484Z,75.64
2022-12-29T03:38:10.573Z,75.80
2022-12-29T03:39:05.770Z,75.70
2022-12-29T03:40:00.815Z,75.58
2022-12-29T03:40:56.087Z,75.81
2022-12-29T03:41:51.135Z,75.99
2022-12-29T03:42:46.208Z,75.66
2022-12-29T03:43:41.287Z,75.64
2022-12-29T03:44:36.374Z,75.65
2022-12-29T03:45:31.466Z,75.57
2022-12-29T03:46:26.465Z,75.54
2022-12-29T03:47:21.431Z,75.53
2022-12-29T03:48:16.639Z,75.42
2022-12-29T03:49:11.741Z,75.40
2022-12-29T03:50:06.960Z,75.45
2022-12-29T03:51:01.954Z,75.36
2022-12-29T03:51:57.050Z,75.45
2022-12-29T03:52:52.098Z,75.50
2022-12-29T03:53:47.229Z,75.40
2022-12-29T03:54:42.279Z,75.36
2022-12-29T03:55:37.346Z,75.40
2022-12-29T03:56:32.358Z,75.29
2022-12-29T03:57:27.413Z,75.25
2022-12-29T03:58:22.460Z,75.17
2022-12-29T03:59:17.490Z,75.14
2022-12-29T04:00:12.485Z,75.20
2022-12-29T04:01:07.545Z,75.05
2022-12-29T04:02:02.696Z,74.95
2022-12-29T04:02:57.808Z,74.62
2022-12-29T04:03:52.870Z,74.40
2022-12-29T04:04:47.981Z,74.22
2022-12-29T04:05:43.046Z,74.06
2022-12-29T04:06:38.133Z,73.85
2022-12-29T04:07:34.200Z,73.89
2022-12-29T04:08:29.423Z,73.89
2022-12-29T04:09:25.240Z,73.72
2022-12-29T04:10:20.259Z,73.75
2022-12-29T04:11:15.849Z,73.78
2022-12-29T04:12:11.488Z,73.65
2022-12-29T04:13:06.732Z,73.64
2022-12-29T04:14:02.008Z,73.69
2022-12-29T04:14:57.092Z,73.68
2022-12-29T04:15:52.114Z,73.82
2022-12-29T04:16:47.173Z,73.59
2022-12-29T04:17:42.236Z,73.67
2022-12-29T04:18:37.208Z,73.70
2022-12-29T04:19:32.188Z,73.57
2022-12-29T04:20:27.315Z,73.35
2022-12-29T04:21:27.654Z,73.38
2022-12-29T04:22:22.717Z,73.52
2022-12-29T04:23:18.109Z,73.47
2022-12-29T04:24:13.831Z,73.61
2022-12-29T04:25:08.944Z,73.74
2022-12-29T04:26:04.165Z,73.73
2022-12-29T04:27:00.547Z,73.74
2022-12-29T04:27:55.713Z,73.61
2022-12-29T04:28:51.340Z,73.79
2022-12-29T04:29:46.562Z,73.83
2022-12-29T04:30:41.625Z,73.65
2022-12-29T04:31:37.494Z,73.60
2022-12-29T04:32:32.721Z,73.81
2022-12-29T04:33:28.762Z,73.86
2022-12-29T04:34:23.743Z,73.78
2022-12-29T04:35:18.882Z,73.79
2022-12-29T04:36:14.816Z,73.82
2022-12-29T04:37:09.942Z,73.84
2022-12-29T04:38:05.351Z,73.78
2022-12-29T04:39:01.555Z,73.79
2022-12-29T04:39:56.627Z,73.74
2022-12-29T04:40:52.479Z,73.67
2022-12-29T04:41:47.568Z,73.62
2022-12-29T04:42:42.948Z,73.83
2022-12-29T04:43:38.632Z,73.63
2022-12-29T04:44:33.747Z,73.65
2022-12-29T04:45:29.611Z,73.67
2022-12-29T04:46:24.736Z,73.63
2022-12-29T04:47:20.096Z,73.85
2022-12-29T04:48:15.904Z,73.92
2022-12-29T04:49:10.974Z,74.11
2022-12-29T04:50:06.109Z,74.31
2022-12-29T04:51:02.315Z,74.43
2022-12-29T04:51:57.461Z,74.46
2022-12-29T04:52:53.230Z,74.37
2022-12-29T04:53:48.447Z,74.54
2022-12-29T04:54:43.692Z,74.48
2022-12-29T04:55:39.316Z,74.58
2022-12-29T04:56:34.559Z,74.53
2022-12-29T04:57:30.530Z,74.58
2022-12-29T04:58:25.556Z,74.60
2022-12-29T04:59:20.985Z,74.60
2022-12-29T05:00:16.773Z,74.68
2022-12-29T05:01:11.861Z,74.78
2022-12-29T05:02:07.010Z,74.82
2022-12-29T05:03:03.396Z,74.82
2022-12-29T05:03:58.529Z,74.85
2022-12-29T05:04:54.239Z,74.91
2022-12-29T05:05:49.364Z,74.88
2022-12-29T05:06:44.581Z,74.89
2022-12-29T05:07:39.664Z,74.90
2022-12-29T05:08:34.937Z,74.99
2022-12-29T05:09:30.574Z,75.10
2022-12-29T05:10:25.830Z,75.06
2022-12-29T05:11:20.883Z,75.00
2022-12-29T05:12:17.205Z,74.99
2022-12-29T05:13:12.359Z,75.10
2022-12-29T05:14:08.545Z,75.11
2022-12-29T05:15:03.790Z,75.06
2022-12-29T05:15:58.902Z,75.12
2022-12-29T05:16:54.809Z,75.16
2022-12-29T05:17:49.941Z,75.17
2022-12-29T05:18:45.871Z,75.27
2022-12-29T05:19:40.995Z,75.35
2022-12-29T05:20:36.122Z,75.39
2022-12-29T05:21:31.954Z,75.51
2022-12-29T05:22:27.173Z,75.51
2022-12-29T05:23:22.392Z,75.61
2022-12-29T05:24:17.465Z,75.51
2022-12-29T05:25:12.570Z,75.54
2022-12-29T05:26:07.532Z,75.64
2022-12-29T05:27:02.743Z,75.66
2022-12-29T05:28:01.628Z,75.76
2022-12-29T05:28:56.762Z,75.82
2022-12-29T05:29:51.723Z,75.85
2022-12-29T05:30:46.808Z,75.85
2022-12-29T05:31:42.006Z,75.82
2022-12-29T05:32:37.277Z,75.81
2022-12-29T05:33:33.055Z,75.77
2022-12-29T05:34:28.283Z,75.78
2022-12-29T05:35:23.417Z,75.77
2022-12-29T05:36:18.657Z,75.73
2022-12-29T05:37:13.878Z,75.82
2022-12-29T05:38:08.954Z,75.93
2022-12-29T05:39:05.120Z,76.01
2022-12-29T05:40:00.348Z,75.95
2022-12-29T05:40:55.465Z,76.08
2022-12-29T05:41:50.663Z,76.11
2022-12-29T05:42:45.733Z,76.24
2022-12-29T05:43:40.844Z,76.26
2022-12-29T05:44:35.908Z,76.40
2022-12-29T05:45:31.031Z,76.62
2022-12-29T05:46:26.089Z,76.74
2022-12-29T05:47:21.279Z,76.65
2022-12-29T05:48:18.785Z,76.72
2022-12-29T05:49:13.472Z,76.78
2022-12-29T05:50:08.659Z,76.80
2022-12-29T05:51:03.618Z,76.80
2022-12-29T05:51:58.696Z,76.82
2022-12-29T05:52:53.740Z,76.98
2022-12-29T05:53:48.852Z,76.97
2022-12-29T05:54:43.912Z,76.88
2022-12-29T05:55:43.449Z,76.96
2022-12-29T05:56:35.024Z,77.00
2022-12-29T05:57:29.061Z,77.02
2022-12-29T05:58:24.193Z,77.08
2022-12-29T05:59:23.456Z,77.04
2022-12-29T06:00:18.567Z,77.06
2022-12-29T06:01:13.686Z,77.11
2022-12-29T06:02:09.113Z,77.07
2022-12-29T06:03:04.213Z,77.10
2022-12-29T06:03:59.270Z,77.24
2022-12-29T06:04:54.190Z,77.25
2022-12-29T06:05:49.295Z,77.25
2022-12-29T06:06:44.379Z,77.30
2022-12-29T06:07:39.527Z,77.32
2022-12-29T06:08:34.496Z,77.26
2022-12-29T06:09:29.663Z,77.26
2022-12-29T06:10:24.621Z,77.31
2022-12-29T06:11:23.930Z,77.33
2022-12-29T06:12:18.851Z,77.32
2022-12-29T06:13:14.121Z,77.38
2022-12-29T06:14:09.230Z,77.44
2022-12-29T06:15:04.369Z,77.48
2022-12-29T06:15:59.469Z,77.58
2022-12-29T06:16:54.563Z,77.68
2022-12-29T06:17:49.659Z,77.76
2022-12-29T06:18:44.790Z,77.72
2022-12-29T06:19:39.829Z,77.67
2022-12-29T06:20:34.978Z,77.60
2022-12-29T06:21:30.040Z,77.57
2022-12-29T06:22:25.057Z,77.54
2022-12-29T06:23:24.449Z,77.48
2022-12-29T06:24:19.548Z,77.43
2022-12-29T06:25:14.701Z,77.37
2022-12-29T06:26:09.810Z,77.32
2022-12-29T06:27:04.950Z,77.35
2022-12-29T06:28:00.054Z,77.19
2022-12-29T06:28:55.047Z,77.17
2022-12-29T06:29:50.062Z,77.21
2022-12-29T06:30:45.164Z,77.19
2022-12-29T06:31:40.337Z,77.28
2022-12-29T06:32:35.358Z,77.33
2022-12-29T06:33:30.510Z,77.29
2022-12-29T06:34:25.467Z,77.39
2022-12-29T06:35:20.541Z,77.37
2022-12-29T06:36:15.537Z,77.38
2022-12-29T06:37:11.346Z,77.52
2022-12-29T06:38:06.613Z,77.49
2022-12-29T06:39:02.505Z,77.43
2022-12-29T06:39:57.567Z,77.44
2022-12-29T06:40:53.011Z,77.47
2022-12-29T06:41:48.767Z,77.59
2022-12-29T06:42:44.066Z,77.61
2022-12-29T06:43:39.501Z,77.68
2022-12-29T06:44:35.611Z,77.79
2022-12-29T06:45:30.772Z,77.78
2022-12-29T06:46:26.578Z,77.78
2022-12-29T06:47:22.595Z,77.77
2022-12-29T06:48:17.000Z,77.81
2022-12-29T06:49:13.629Z,77.86
2022-12-29T06:50:08.701Z,77.87
2022-12-29T06:51:04.662Z,77.85
2022-12-29T06:51:59.806Z,77.88
2022-12-29T06:52:55.252Z,77.92
2022-12-29T06:53:50.959Z,78.00
2022-12-29T06:54:46.126Z,78.02
2022-12-29T06:55:41.422Z,77.96
2022-12-29T06:56:37.527Z,77.92
2022-12-29T06:57:32.836Z,77.89
2022-12-29T06:58:28.664Z,77.91
2022-12-29T06:59:23.796Z,77.91
2022-12-29T07:00:22.727Z,77.91
2022-12-29T07:01:14.296Z,78.09
2022-12-29T07:02:09.341Z,78.11
2022-12-29T07:03:04.298Z,78.15
2022-12-29T07:03:59.291Z,78.01
2022-12-29T07:04:54.355Z,77.97
2022-12-29T07:05:49.327Z,78.03
2022-12-29T07:06:44.399Z,78.01
2022-12-29T07:07:39.467Z,77.99
2022-12-29T07:08:34.587Z,78.03
2022-12-29T07:09:29.660Z,78.06
2022-12-29T07:10:24.737Z,78.15
2022-12-29T07:11:19.734Z,78.15
2022-12-29T07:12:14.854Z,78.03
2022-12-29T07:13:09.873Z,78.05
2022-12-29T07:14:08.226Z,78.09
2022-12-29T07:15:03.213Z,78.19
2022-12-29T07:15:58.274Z,78.12
2022-12-29T07:16:53.304Z,78.18
2022-12-29T07:17:48.329Z,78.35
2022-12-29T07:18:43.342Z,78.57
2022-12-29T07:19:38.480Z,78.49
2022-12-29T07:20:35.132Z,78.53
2022-12-29T07:21:30.447Z,78.37
2022-12-29T07:22:25.848Z,78.36
2022-12-29T07:23:21.564Z,78.33
2022-12-29T07:24:16.853Z,78.47
2022-12-29T07:25:12.419Z,78.45
2022-12-29T07:26:07.404Z,78.47
2022-12-29T07:27:02.685Z,78.44
2022-12-29T07:27:57.979Z,78.57
2022-12-29T07:28:54.347Z,78.63
2022-12-29T07:29:49.589Z,78.71
2022-12-29T07:30:44.899Z,78.63
2022-12-29T07:31:43.917Z,78.51
2022-12-29T07:32:39.158Z,78.46
2022-12-29T07:33:34.423Z,78.33
2022-12-29T07:34:29.728Z,78.32
2022-12-29T07:35:24.719Z,78.44
2022-12-29T07:36:19.749Z,78.52
2022-12-29T07:37:14.755Z,78.54
2022-12-29T07:38:09.781Z,78.55
2022-12-29T07:39:04.803Z,78.95
2022-12-29T07:39:59.834Z,78.80
2022-12-29T07:40:54.912Z,78.85
2022-12-29T07:41:49.970Z,79.03
2022-12-29T07:42:45.146Z,79.09
2022-12-29T07:43:40.243Z,79.19
2022-12-29T07:44:35.276Z,79.35
2022-12-29T07:45:30.345Z,79.46
2022-12-29T07:46:56.385Z,79.59
2022-12-29T07:47:21.736Z,79.79
2022-12-29T07:48:16.096Z,79.86
2022-12-29T07:49:11.433Z,79.78
2022-12-29T07:50:06.894Z,79.77
2022-12-29T07:51:02.210Z,79.79
2022-12-29T07:51:57.344Z,79.70
2022-12-29T07:52:52.703Z,79.61
2022-12-29T07:53:48.030Z,79.49
2022-12-29T07:54:43.333Z,79.45
2022-12-29T07:55:38.647Z,79.43
2022-12-29T07:56:33.985Z,79.40
2022-12-29T07:57:32.125Z,79.40
2022-12-29T07:58:24.653Z,79.35
2022-12-29T07:59:19.962Z,79.28
2022-12-29T08:00:15.316Z,79.31
2022-12-29T08:01:10.628Z,79.21
2022-12-29T08:02:06.066Z,79.06
2022-12-29T08:03:01.315Z,78.79
2022-12-29T08:03:57.739Z,78.66
2022-12-29T08:04:52.245Z,78.68
2022-12-29T08:05:47.202Z,78.67
2022-12-29T08:06:42.307Z,78.68
2022-12-29T08:07:37.285Z,78.90
2022-12-29T08:08:32.400Z,78.93
2022-12-29T08:09:27.433Z,78.97
2022-12-29T08:10:22.536Z,78.98
2022-12-29T08:11:17.531Z,78.96
2022-12-29T08:12:12.657Z,78.99
2022-12-29T08:13:07.762Z,78.98
2022-12-29T08:14:02.878Z,79.15
2022-12-29T08:14:57.957Z,79.29
2022-12-29T08:15:53.083Z,79.48
2022-12-29T08:16:48.083Z,79.61
2022-12-29T08:17:43.372Z,79.72
2022-12-29T08:18:38.718Z,79.76
2022-12-29T08:19:34.140Z,79.68
2022-12-29T08:20:29.435Z,79.59
2022-12-29T08:21:24.950Z,79.57
2022-12-29T08:22:20.197Z,79.48
2022-12-29T08:23:15.582Z,79.42
2022-12-29T08:24:10.959Z,79.49
2022-12-29T08:25:06.389Z,79.58
2022-12-29T08:26:01.974Z,79.60
2022-12-29T08:26:57.128Z,79.66
2022-12-29T08:27:52.521Z,79.57
2022-12-29T08:28:47.938Z,79.50
2022-12-29T08:29:43.332Z,79.43
2022-12-29T08:30:38.688Z,79.47
2022-12-29T08:31:34.269Z,79.48
2022-12-29T08:32:29.566Z,79.32
2022-12-29T08:33:24.562Z,79.29
2022-12-29T08:34:19.689Z,79.15
2022-12-29T08:35:14.798Z,79.04
2022-12-29T08:36:09.819Z,79.07
2022-12-29T08:37:04.914Z,79.04
2022-12-29T08:37:59.865Z,78.96
2022-12-29T08:38:54.887Z,79.06
2022-12-29T08:39:50.016Z,79.11
2022-12-29T08:40:45.000Z,78.89
2022-12-29T08:41:40.130Z,78.74
2022-12-29T08:42:35.649Z,78.68
2022-12-29T08:43:30.806Z,78.64
2022-12-29T08:44:25.860Z,78.62
2022-12-29T08:45:20.914Z,78.57
2022-12-29T08:46:15.912Z,78.70
2022-12-29T08:47:10.896Z,78.92
2022-12-29T08:48:05.869Z,78.93
2022-12-29T08:49:00.980Z,78.98
2022-12-29T08:49:56.004Z,79.02
2022-12-29T08:50:51.110Z,78.90
2022-12-29T08:51:46.207Z,78.80
2022-12-29T08:52:42.029Z,78.83
2022-12-29T08:53:37.422Z,78.57
2022-12-29T08:54:32.930Z,78.42
2022-12-29T08:55:28.197Z,78.18
2022-12-29T08:56:23.840Z,78.01
2022-12-29T08:57:19.131Z,77.86
2022-12-29T08:58:14.539Z,77.58
2022-12-29T08:59:09.932Z,77.32
2022-12-29T09:00:05.308Z,77.07
2022-12-29T09:01:00.673Z,76.79
2022-12-29T09:01:56.140Z,76.71
2022-12-29T09:02:51.525Z,76.45
2022-12-29T09:04:13.342Z,76.23
2022-12-29T09:04:43.417Z,76.06
2022-12-29T09:05:37.613Z,76.25
2022-12-29T09:06:39.694Z,75.97
2022-12-29T09:07:29.395Z,75.72
2022-12-29T09:08:26.282Z,75.39
2022-12-29T09:09:19.231Z,74.95
2022-12-29T09:10:14.736Z,74.40
2022-12-29T09:11:09.998Z,74.23
2022-12-29T09:12:06.042Z,73.70
2022-12-29T09:13:01.434Z,72.96
2022-12-29T09:13:56.926Z,72.80
2022-12-29T09:14:52.401Z,72.33
2022-12-29T09:15:47.706Z,71.88
2022-12-29T09:16:43.288Z,71.26
2022-12-29T09:17:38.562Z,70.85
2022-12-29T09:18:33.933Z,70.18
2022-12-29T09:19:29.339Z,69.54
2022-12-29T09:20:24.992Z,69.20
2022-12-29T09:21:20.214Z,68.26
2022-12-29T09:22:15.254Z,67.93
2022-12-29T09:23:10.295Z,68.10
2022-12-29T09:24:05.340Z,67.64
2022-12-29T09:25:00.377Z,66.98
2022-12-29T09:25:55.583Z,66.31
2022-12-29T09:26:50.518Z,66.74
2022-12-29T09:27:45.585Z,67.68
2022-12-29T09:28:40.722Z,69.01
2022-12-29T09:29:35.853Z,68.55
2022-12-29T09:30:30.945Z,67.75
2022-12-29T09:31:26.152Z,66.81
2022-12-29T09:32:22.962Z,66.53
2022-12-29T09:33:16.073Z,66.14
2022-12-29T09:34:11.201Z,65.47
2022-12-29T09:35:08.902Z,65.35
2022-12-29T09:36:04.307Z,65.37
2022-12-29T09:36:59.593Z,65.19
2022-12-29T09:37:55.187Z,64.09
2022-12-29T09:38:50.650Z,65.17
2022-12-29T09:39:50.600Z,66.94
2022-12-29T09:40:42.509Z,68.69
2022-12-29T09:41:36.796Z,69.70
2022-12-29T09:42:32.294Z,70.60
2022-12-29T09:43:27.534Z,71.14
2022-12-29T09:44:22.928Z,71.61
2022-12-29T09:45:18.445Z,71.92
2022-12-29T09:46:13.688Z,71.82
2022-12-29T09:47:09.083Z,71.82
2022-12-29T09:48:09.652Z,71.93
2022-12-29T09:49:00.949Z,72.10
2022-12-29T09:49:55.268Z,70.98
2022-12-29T09:50:50.765Z,70.68
2022-12-29T09:51:45.805Z,69.47
2022-12-29T09:52:40.910Z,67.05
2022-12-29T09:53:35.927Z,64.83
2022-12-29T09:54:30.984Z,63.57
2022-12-29T09:55:26.180Z,64.74
2022-12-29T09:56:21.222Z,64.42
2022-12-29T09:57:16.285Z,65.02
2022-12-29T09:58:14.019Z,65.17
2022-12-29T09:59:09.151Z,64.98
2022-12-29T10:00:04.165Z,65.33
2022-12-29T10:00:59.289Z,66.00
2022-12-29T10:01:54.442Z,66.64
2022-12-29T10:02:49.468Z,66.71
2022-12-29T10:03:44.435Z,67.37
2022-12-29T10:04:39.606Z,67.55
2022-12-29T10:05:34.586Z,67.83
2022-12-29T10:06:29.675Z,68.18
2022-12-29T10:07:31.921Z,68.67
2022-12-29T10:08:20.770Z,69.43
2022-12-29T10:09:18.856Z,69.63
2022-12-29T10:10:13.951Z,69.90
2022-12-29T10:11:08.914Z,70.47
2022-12-29T10:12:03.960Z,70.35
2022-12-29T10:12:58.947Z,70.25
2022-12-29T10:13:54.005Z,69.79
2022-12-29T10:14:48.988Z,69.46
2022-12-29T10:15:44.116Z,69.69
2022-12-29T10:16:39.218Z,69.92
2022-12-29T10:17:34.192Z,70.32
2022-12-29T10:18:29.277Z,70.61
2022-12-29T10:19:29.699Z,70.90
2022-12-29T10:20:20.503Z,70.74
2022-12-29T10:21:18.852Z,70.24
2022-12-29T10:22:14.426Z,68.97
2022-12-29T10:23:09.844Z,68.15
2022-12-29T10:24:05.346Z,67.50
2022-12-29T10:25:00.681Z,66.97
2022-12-29T10:25:56.369Z,66.99
2022-12-29T10:26:51.667Z,67.90
2022-12-29T10:27:46.695Z,69.08
2022-12-29T10:28:41.853Z,69.80
2022-12-29T10:29:36.909Z,70.35
2022-12-29T10:30:32.024Z,70.61
2022-12-29T10:31:27.115Z,70.70
2022-12-29T10:32:22.122Z,70.81
2022-12-29T10:33:17.138Z,71.24
2022-12-29T10:34:12.226Z,70.69
2022-12-29T10:35:07.298Z,69.99
2022-12-29T10:36:02.393Z,69.10
2022-12-29T10:36:57.347Z,67.52
2022-12-29T10:37:52.428Z,66.49
2022-12-29T10:38:47.641Z,65.25
2022-12-29T10:39:42.724Z,64.49
2022-12-29T10:40:38.076Z,63.40
2022-12-29T10:41:33.751Z,61.84
2022-12-29T10:42:29.124Z,61.66
2022-12-29T10:43:24.635Z,61.00
2022-12-29T10:44:20.123Z,60.46
2022-12-29T10:45:15.568Z,60.99
2022-12-29T10:46:11.238Z,62.08
2022-12-29T10:47:06.572Z,62.53
2022-12-29T10:48:01.863Z,63.86
2022-12-29T10:48:57.464Z,64.86
2022-12-29T10:49:52.748Z,65.43
2022-12-29T10:50:48.206Z,65.59
2022-12-29T10:51:43.707Z,64.74
2022-12-29T10:52:39.085Z,63.68
2022-12-29T10:53:34.177Z,63.15
2022-12-29T10:54:29.265Z,62.42
2022-12-29T10:55:24.292Z,63.16
2022-12-29T10:56:19.303Z,63.59
2022-12-29T10:57:14.343Z,64.28
2022-12-29T10:58:10.723Z,65.48
2022-12-29T10:59:04.482Z,64.88
2022-12-29T11:00:02.053Z,65.45
2022-12-29T11:00:57.187Z,66.00
2022-12-29T11:01:52.276Z,66.93
2022-12-29T11:02:47.245Z,67.71
2022-12-29T11:03:42.333Z,67.94
2022-12-29T11:04:37.380Z,68.25
2022-12-29T11:05:32.442Z,68.59
2022-12-29T11:06:27.548Z,68.64
2022-12-29T11:07:26.930Z,68.72
2022-12-29T11:08:17.672Z,69.09
2022-12-29T11:09:12.787Z,69.08
2022-12-29T11:10:07.788Z,69.24
2022-12-29T11:11:02.966Z,69.59
2022-12-29T11:11:58.041Z,69.83
2022-12-29T11:12:53.169Z,70.16
2022-12-29T11:13:48.154Z,70.29
2022-12-29T11:14:43.300Z,70.27
2022-12-29T11:15:40.034Z,70.35
2022-12-29T11:16:35.643Z,70.24
2022-12-29T11:17:30.672Z,70.20
2022-12-29T11:18:26.283Z,70.38
2022-12-29T11:19:21.392Z,70.50
2022-12-29T11:20:16.462Z,70.31
2022-12-29T11:21:11.528Z,70.35
2022-12-29T11:22:06.614Z,70.20
2022-12-29T11:23:01.582Z,70.42
2022-12-29T11:23:56.642Z,70.56
2022-12-29T11:24:51.794Z,70.15
2022-12-29T11:25:47.029Z,70.09
2022-12-29T11:26:41.994Z,70.05
2022-12-29T11:27:37.032Z,70.11
2022-12-29T11:28:32.044Z,70.35
2022-12-29T11:29:27.684Z,70.29
2022-12-29T11:30:22.790Z,70.30
2022-12-29T11:31:17.886Z,70.17
2022-12-29T11:32:13.055Z,70.45
2022-12-29T11:33:08.515Z,70.50
2022-12-29T11:34:03.963Z,70.59
2022-12-29T11:34:59.471Z,70.71
2022-12-29T11:35:54.868Z,70.94
2022-12-29T11:36:50.354Z,70.74
2022-12-29T11:37:45.884Z,70.71
2022-12-29T11:38:41.475Z,70.61
2022-12-29T11:39:36.761Z,70.76
2022-12-29T11:40:32.073Z,70.76
2022-12-29T11:41:27.525Z,70.78
2022-12-29T11:42:23.070Z,70.79
2022-12-29T11:43:18.381Z,70.84
2022-12-29T11:44:13.842Z,70.64
2022-12-29T11:45:11.163Z,70.07
2022-12-29T11:46:04.363Z,69.88
2022-12-29T11:46:59.378Z,69.71
2022-12-29T11:47:54.533Z,69.55
2022-12-29T11:48:49.577Z,69.08
2022-12-29T11:49:44.605Z,68.85
2022-12-29T11:50:39.579Z,68.87
2022-12-29T11:51:34.614Z,68.78
2022-12-29T11:52:31.907Z,68.92